Time;durP1;ratioP1;P1;durP2;ratioP2;P2;SDS_P1;SDS_P2;PMS_P1;PMS_P2;Temp;Humidity;BMP_temperature;BMP_pressure;BME280_temperature;BME280_humidity;BME280_pressure;Samples;Min_cycle;Max_cycle;Signal;HPM_P1;HPM_P2
2022/03/10 00:03:41;;;;;;;29.83;13.90;;;2.90;99.90;;;;;;10392582;28;20436;-83
2022/03/10 00:08:41;;;;;;;27.60;12.87;;;2.80;99.90;;;;;;10410174;28;20099;-83
2022/03/10 00:13:42;;;;;;;27.80;14.23;;;2.80;99.90;;;;;;10391171;28;20049;-84
2022/03/10 00:18:42;;;;;;;28.67;14.07;;;2.80;99.90;;;;;;10392619;28;20462;-83
2022/03/10 00:23:43;;;;;;;33.93;15.67;;;2.70;99.90;;;;;;10410463;28;20605;-85
2022/03/10 00:28:44;;;;;;;33.57;15.83;;;2.70;99.90;;;;;;10392495;28;20038;-84
2022/03/10 00:33:44;;;;;;;30.47;14.47;;;2.60;99.90;;;;;;10391093;28;20099;-84
2022/03/10 00:38:45;;;;;;;33.20;15.33;;;2.60;99.90;;;;;;10410294;28;20116;-83
2022/03/10 00:43:46;;;;;;;31.83;14.60;;;2.40;99.90;;;;;;10409173;28;20057;-83
2022/03/10 00:48:46;;;;;;;35.37;15.00;;;2.30;99.90;;;;;;10408979;28;20044;-83
2022/03/10 00:53:47;;;;;;;32.40;14.80;;;2.20;99.90;;;;;;10408908;28;20049;-83
2022/03/10 00:58:48;;;;;;;32.93;14.57;;;2.30;99.90;;;;;;10408993;28;20025;-83
2022/03/10 01:03:48;;;;;;;31.17;15.27;;;2.20;99.90;;;;;;10408691;28;20052;-85
2022/03/10 01:08:49;;;;;;;34.83;15.40;;;2.20;99.90;;;;;;10408130;28;20128;-84
2022/03/10 01:13:49;;;;;;;32.07;14.23;;;2.00;99.90;;;;;;10408160;28;20038;-83
2022/03/10 01:18:50;;;;;;;31.33;14.83;;;2.00;99.90;;;;;;10408260;28;20124;-85
2022/03/10 01:23:51;;;;;;;30.20;14.53;;;2.00;99.90;;;;;;10407485;28;20033;-84
2022/03/10 01:28:52;;;;;;;34.03;13.60;;;2.00;99.90;;;;;;10408112;28;20531;-84
2022/03/10 01:33:52;;;;;;;34.00;15.73;;;1.90;99.90;;;;;;10408147;28;20041;-84
2022/03/10 01:38:53;;;;;;;29.57;13.67;;;1.80;99.90;;;;;;10408558;28;20112;-83
2022/03/10 01:43:56;;;;;;;35.90;16.07;;;1.70;99.90;;;;;;10407787;28;20080;-84
2022/03/10 01:48:58;;;;;;;36.97;16.37;;;1.50;99.90;;;;;;10390124;28;20045;-84
2022/03/10 01:53:58;;;;;;;31.77;15.30;;;1.30;99.90;;;;;;10407037;28;20053;-85
2022/03/10 01:59:02;;;;;;;34.87;15.33;;;1.20;99.90;;;;;;10407397;28;20049;-84
2022/03/10 02:04:03;;;;;;;35.87;15.10;;;1.10;99.90;;;;;;10406715;28;20083;-85
2022/03/10 02:19:44;;;;;;;29.03;13.07;;;1.00;99.90;;;;;;10406477;28;20042;-85
2022/03/10 02:24:44;;;;;;;25.40;11.43;;;0.90;99.90;;;;;;10406866;28;20034;-84
2022/03/10 02:29:47;;;;;;;26.90;11.17;;;1.00;99.90;;;;;;10406435;28;20034;-85
2022/03/10 02:34:48;;;;;;;23.93;9.80;;;1.00;99.90;;;;;;10406708;28;20057;-83
2022/03/10 02:39:49;;;;;;;17.53;7.20;;;0.90;99.90;;;;;;10414663;28;20035;-83
2022/03/10 02:44:49;;;;;;;13.33;6.60;;;0.70;98.90;;;;;;10413757;28;20033;-83
2022/03/10 02:49:50;;;;;;;13.37;6.17;;;0.60;97.50;;;;;;10414312;28;20033;-83
2022/03/10 02:54:51;;;;;;;15.77;7.33;;;0.50;96.10;;;;;;10414644;28;20144;-83
2022/03/10 02:59:52;;;;;;;13.47;6.87;;;0.50;96.20;;;;;;10413955;28;20065;-85
2022/03/10 03:04:53;;;;;;;13.97;7.00;;;0.50;96.50;;;;;;10412973;28;20136;-83
2022/03/10 03:09:53;;;;;;;15.83;7.87;;;0.50;96.00;;;;;;10413065;28;20117;-84
2022/03/10 03:14:54;;;;;;;15.20;7.80;;;0.50;95.60;;;;;;10395039;28;20097;-84
2022/03/10 03:19:55;;;;;;;14.37;7.63;;;0.50;96.50;;;;;;10412848;28;20100;-83
2022/03/10 03:24:55;;;;;;;15.07;7.40;;;0.50;97.30;;;;;;10412966;28;20037;-83
2022/03/10 03:29:56;;;;;;;15.03;7.00;;;0.40;98.00;;;;;;10412432;28;20037;-83
2022/03/10 03:34:57;;;;;;;17.20;7.70;;;0.30;99.20;;;;;;10412008;28;20128;-84
2022/03/10 03:39:57;;;;;;;17.33;8.43;;;0.40;99.90;;;;;;10412646;28;20120;-84
2022/03/10 03:44:58;;;;;;;17.43;7.70;;;0.30;99.90;;;;;;10411602;28;20033;-83
2022/03/10 03:49:59;;;;;;;17.67;9.07;;;0.30;99.90;;;;;;10411264;28;20033;-84
2022/03/10 03:55:00;;;;;;;17.10;8.33;;;0.30;99.90;;;;;;10393774;28;20500;-84
2022/03/10 04:00:01;;;;;;;16.97;7.50;;;0.30;99.90;;;;;;10410996;28;20030;-83
2022/03/10 04:05:02;;;;;;;18.33;7.57;;;0.30;99.90;;;;;;10410969;28;20183;-84
2022/03/10 04:10:04;;;;;;;19.83;8.73;;;0.30;99.90;;;;;;10411337;28;20033;-84
2022/03/10 04:15:06;;;;;;;13.87;6.50;;;0.20;99.90;;;;;;10410195;28;20029;-86
2022/03/10 04:20:08;;;;;;;11.80;5.57;;;0.10;99.90;;;;;;10367712;28;20489;-87
2022/03/10 04:25:09;;;;;;;12.23;6.17;;;0.10;99.90;;;;;;10394861;28;20481;-83
2022/03/10 04:30:11;;;;;;;11.10;5.20;;;0.00;99.90;;;;;;10408493;28;20029;-84
2022/03/10 04:35:14;;;;;;;13.50;5.90;;;-0.20;99.90;;;;;;10409769;28;20060;-84
2022/03/10 04:40:15;;;;;;;12.63;6.13;;;-0.40;99.90;;;;;;10410251;28;20355;-87
2022/03/10 04:45:16;;;;;;;13.30;6.40;;;-0.50;99.90;;;;;;10408638;28;20033;-85
2022/03/10 04:50:18;;;;;;;14.63;6.37;;;-0.60;99.90;;;;;;10408571;28;20041;-84
2022/03/10 04:55:19;;;;;;;13.50;5.90;;;-0.70;99.90;;;;;;10390696;28;20424;-85
2022/03/10 05:00:20;;;;;;;12.87;5.50;;;-0.80;99.90;;;;;;10407777;28;20021;-86
2022/03/10 05:05:24;;;;;;;13.93;5.57;;;-0.90;99.90;;;;;;10389070;28;20068;-85
2022/03/10 05:10:24;;;;;;;19.10;7.97;;;-1.00;99.90;;;;;;10400280;28;20030;-84
2022/03/10 05:15:32;;;;;;;37.80;12.50;;;-1.10;99.90;;;;;;10406847;28;20037;-85
2022/03/10 05:20:33;;;;;;;21.40;8.00;;;-1.10;99.90;;;;;;10406384;28;20033;-84
2022/03/10 05:25:35;;;;;;;30.93;12.50;;;-1.10;99.90;;;;;;10400584;28;20029;-85
2022/03/10 05:30:36;;;;;;;24.77;9.80;;;-1.20;99.90;;;;;;10404506;28;20034;-85
2022/03/10 05:35:37;;;;;;;35.93;14.33;;;-1.10;99.90;;;;;;10408368;28;20037;-86
2022/03/10 05:40:38;;;;;;;29.30;12.17;;;-1.10;99.90;;;;;;10390299;28;20084;-85
2022/03/10 05:45:39;;;;;;;33.47;13.60;;;-1.10;99.90;;;;;;10384574;28;20064;-85
2022/03/10 05:50:39;;;;;;;24.67;10.70;;;-1.10;99.90;;;;;;10384468;28;20480;-85
2022/03/10 05:55:40;;;;;;;22.93;10.30;;;-1.10;99.90;;;;;;10391475;28;20037;-87
2022/03/10 06:00:41;;;;;;;27.73;12.23;;;-1.20;99.90;;;;;;10411355;28;20040;-87
2022/03/10 06:05:42;;;;;;;16.63;8.73;;;-1.10;99.90;;;;;;10385832;28;20049;-85
2022/03/10 06:10:42;;;;;;;15.60;8.20;;;-1.20;99.90;;;;;;10397439;28;20037;-84
2022/03/10 06:15:43;;;;;;;16.43;7.90;;;-1.20;99.90;;;;;;10424836;28;20037;-84
2022/03/10 06:20:44;;;;;;;20.60;9.53;;;-1.10;99.90;;;;;;10413758;28;20473;-86
2022/03/10 06:25:44;;;;;;;17.90;9.17;;;-1.00;99.90;;;;;;10355726;28;20038;-88
2022/03/10 06:30:46;;;;;;;20.20;9.07;;;-1.10;99.50;;;;;;10412064;28;20042;-85
2022/03/10 06:35:46;;;;;;;18.70;8.57;;;-1.10;99.20;;;;;;10413546;28;20492;-84
2022/03/10 06:40:47;;;;;;;18.30;8.00;;;-1.00;99.10;;;;;;10413487;28;20033;-87
2022/03/10 06:45:48;;;;;;;20.43;9.07;;;-0.90;95.00;;;;;;10414477;28;20034;-86
2022/03/10 06:50:48;;;;;;;17.37;8.57;;;-0.80;95.40;;;;;;10414497;28;20029;-84
2022/03/10 06:55:49;;;;;;;18.33;8.27;;;-0.80;94.40;;;;;;10414492;28;20033;-84
2022/03/10 07:00:50;;;;;;;17.47;7.67;;;-0.70;93.30;;;;;;10414333;28;20393;-84
2022/03/10 07:05:50;;;;;;;15.80;8.33;;;-0.60;91.80;;;;;;10414203;28;20061;-84
2022/03/10 07:10:51;;;;;;;19.73;8.37;;;-0.60;92.30;;;;;;10413998;28;20041;-87
2022/03/10 07:15:52;;;;;;;20.43;9.57;;;-0.60;91.50;;;;;;10413319;28;20037;-84
2022/03/10 07:20:52;;;;;;;21.40;8.77;;;-0.50;91.70;;;;;;10413148;28;20036;-84
2022/03/10 07:25:54;;;;;;;19.13;9.27;;;-0.30;92.00;;;;;;10412121;28;20143;-84
2022/03/10 07:30:54;;;;;;;21.43;10.70;;;-0.20;92.00;;;;;;10394687;28;20091;-84
2022/03/10 07:35:55;;;;;;;23.77;9.70;;;0.10;92.60;;;;;;10413575;28;20130;-84
2022/03/10 07:40:57;;;;;;;30.77;13.33;;;0.30;91.20;;;;;;10412239;28;20112;-84
2022/03/10 07:45:58;;;;;;;16.40;8.63;;;0.50;90.60;;;;;;10412786;28;20021;-84
2022/03/10 07:50:59;;;;;;;16.37;7.50;;;0.70;88.20;;;;;;10412326;28;20431;-84
2022/03/10 07:56:00;;;;;;;13.53;6.60;;;0.90;86.70;;;;;;10411511;28;20571;-85
2022/03/10 08:01:00;;;;;;;13.00;5.50;;;0.80;80.30;;;;;;10411830;28;20070;-85
2022/03/10 08:06:01;;;;;;;13.83;6.40;;;1.00;80.00;;;;;;10393962;28;20057;-86
2022/03/10 08:11:03;;;;;;;12.87;6.57;;;0.90;78.40;;;;;;10411712;28;20071;-85
2022/03/10 08:16:04;;;;;;;12.10;5.70;;;1.10;76.50;;;;;;10411378;28;20037;-84
2022/03/10 08:21:04;;;;;;;8.90;4.90;;;0.90;74.50;;;;;;10411912;28;20117;-86
2022/03/10 08:26:05;;;;;;;10.70;4.60;;;0.90;72.50;;;;;;10410666;28;20108;-87
2022/03/10 08:31:06;;;;;;;9.90;4.97;;;1.00;70.80;;;;;;10392971;28;20045;-86
2022/03/10 08:36:06;;;;;;;12.40;4.93;;;1.30;69.60;;;;;;10409473;28;20057;-85
2022/03/10 08:41:07;;;;;;;6.73;3.63;;;1.30;67.90;;;;;;10410456;28;20033;-85
2022/03/10 08:46:08;;;;;;;7.23;3.67;;;1.20;66.00;;;;;;10409919;28;20508;-85
2022/03/10 08:51:09;;;;;;;9.33;4.33;;;1.20;64.50;;;;;;10409513;28;20496;-84
2022/03/10 08:56:10;;;;;;;17.03;6.30;;;1.50;66.10;;;;;;10409248;28;20044;-85
2022/03/10 09:01:11;;;;;;;7.03;3.80;;;2.00;68.00;;;;;;10409489;28;20056;-84
2022/03/10 09:06:13;;;;;;;7.87;4.13;;;2.10;64.80;;;;;;10408779;28;20049;-83
2022/03/10 09:11:15;;;;;;;30.33;12.10;;;2.20;63.30;;;;;;10408891;28;20048;-84
2022/03/10 09:16:19;;;;;;;14.57;6.77;;;2.50;66.10;;;;;;10409436;28;20068;-86
2022/03/10 09:21:20;;;;;;;7.87;4.00;;;3.10;63.30;;;;;;10408977;28;20500;-85
2022/03/10 09:26:21;;;;;;;9.17;4.33;;;3.20;61.10;;;;;;10408743;28;20029;-85
2022/03/10 09:31:22;;;;;;;10.50;3.60;;;2.80;60.00;;;;;;10388078;28;20111;-85
2022/03/10 09:36:23;;;;;;;9.67;3.73;;;2.70;60.00;;;;;;10367658;28;20025;-85
2022/03/10 09:41:24;;;;;;;8.43;5.10;;;2.80;62.10;;;;;;10367828;28;20459;-86
2022/03/10 09:46:25;;;;;;;7.77;3.90;;;3.40;63.70;;;;;;10371719;28;20032;-86
2022/03/10 09:51:26;;;;;;;11.77;6.23;;;3.60;58.20;;;;;;10376649;28;20519;-86
2022/03/10 09:56:27;;;;;;;14.17;6.57;;;3.50;61.80;;;;;;10376289;28;20045;-85
2022/03/10 10:01:27;;;;;;;13.97;6.30;;;3.70;61.20;;;;;;10357749;28;20056;-85
2022/03/10 10:06:28;;;;;;;8.90;4.63;;;4.00;60.40;;;;;;10375396;28;20089;-84
2022/03/10 10:11:31;;;;;;;13.10;6.30;;;4.00;60.90;;;;;;10375138;28;20033;-88
2022/03/10 10:16:31;;;;;;;18.07;8.13;;;4.10;60.00;;;;;;10357198;28;20053;-86
2022/03/10 10:21:32;;;;;;;18.93;8.07;;;4.00;60.40;;;;;;10356821;28;20030;-85
2022/03/10 10:26:33;;;;;;;30.67;13.57;;;4.20;60.30;;;;;;10356987;28;20030;-87
2022/03/10 10:31:37;;;;;;;11.40;6.37;;;4.20;60.40;;;;;;10374127;28;20041;-85
2022/03/10 10:36:41;;;;;;;8.17;4.60;;;4.40;61.10;;;;;;10374279;28;20109;-85
2022/03/10 10:41:45;;;;;;;24.63;10.70;;;4.40;57.30;;;;;;10374843;28;20029;-86
2022/03/10 10:46:50;;;;;;;11.03;6.10;;;4.50;60.80;;;;;;10374002;28;20037;-85
2022/03/10 10:51:53;;;;;;;10.57;5.30;;;4.80;59.20;;;;;;10373477;28;20046;-86
2022/03/10 10:56:56;;;;;;;9.67;4.90;;;4.90;58.40;;;;;;10354476;28;20393;-85
2022/03/10 11:02:19;;;;;;;14.57;6.47;;;4.90;59.10;;;;;;10373206;28;20080;-85
2022/03/10 11:07:21;;;;;;;13.83;6.57;;;4.50;55.90;;;;;;10373354;28;20409;-86
2022/03/10 11:12:22;;;;;;;49.97;16.90;;;4.30;58.80;;;;;;10372792;28;20621;-85
2022/03/10 11:17:24;;;;;;;13.27;5.83;;;4.20;59.50;;;;;;10372396;28;20034;-84
2022/03/10 11:22:55;;;;;;;15.10;6.30;;;3.90;58.00;;;;;;10372399;28;20032;-85
2022/03/10 11:27:59;;;;;;;22.90;8.73;;;4.20;59.40;;;;;;10371966;28;20126;-84
2022/03/10 11:33:12;;;;;;;18.47;9.10;;;4.40;57.60;;;;;;10372291;28;20034;-85
2022/03/10 11:38:14;;;;;;;7.97;4.50;;;4.70;59.10;;;;;;10371643;28;20528;-84
2022/03/10 11:43:30;;;;;;;14.83;6.87;;;4.80;56.10;;;;;;10371858;28;20033;-83
2022/03/10 11:48:30;;;;;;;11.20;6.07;;;4.50;58.30;;;;;;10371268;28;20026;-84
2022/03/10 11:53:58;;;;;;;63.00;32.67;;;5.10;57.80;;;;;;10353369;28;20041;-86
2022/03/10 11:59:17;;;;;;;68.43;34.47;;;5.00;57.90;;;;;;10371328;28;20497;-84
2022/03/10 12:04:22;;;;;;;13.17;6.00;;;4.80;57.10;;;;;;10371440;28;20032;-84
2022/03/10 12:09:30;;;;;;;54.50;25.07;;;4.80;57.50;;;;;;10370582;28;20529;-85
2022/03/10 12:14:31;;;;;;;39.23;12.70;;;5.10;57.50;;;;;;10353174;28;20045;-85
2022/03/10 12:20:10;;;;;;;10.33;5.23;;;5.20;57.90;;;;;;10370688;28;20021;-85
2022/03/10 12:25:18;;;;;;;7.87;4.60;;;5.10;54.60;;;;;;10370330;28;20064;-86
2022/03/10 12:30:24;;;;;;;19.03;7.37;;;4.70;54.70;;;;;;10351760;28;20096;-85
2022/03/10 12:35:26;;;;;;;;;;;4.30;55.60;;;;;;10370562;28;20030;-84
2022/03/10 12:40:29;;;;;;;8.17;4.93;;;4.20;56.70;;;;;;10351700;28;19916;-84
2022/03/10 12:45:31;;;;;;;9.43;4.77;;;4.10;56.90;;;;;;10368980;28;20504;-84
2022/03/10 12:50:36;;;;;;;15.10;6.30;;;4.60;55.20;;;;;;10369333;28;20433;-84
2022/03/10 12:55:36;;;;;;;14.93;6.67;;;4.80;57.80;;;;;;10368473;28;20410;-85
2022/03/10 13:00:40;;;;;;;9.03;5.17;;;5.00;53.80;;;;;;10368628;28;20026;-84
2022/03/10 13:05:41;;;;;;;8.27;4.33;;;4.60;54.30;;;;;;10368001;28;20148;-85
2022/03/10 13:10:42;;;;;;;8.87;4.50;;;4.30;54.20;;;;;;10350617;28;20122;-84
2022/03/10 13:15:43;;;;;;;7.73;4.50;;;4.30;53.90;;;;;;10368198;28;20458;-85
2022/03/10 13:20:43;;;;;;;9.50;4.40;;;4.00;54.70;;;;;;10350299;28;20663;-85
2022/03/10 13:25:44;;;;;;;52.43;46.73;;;4.10;53.90;;;;;;10368461;28;20113;-85
2022/03/10 13:30:46;;;;;;;372.87;210.97;;;3.80;54.10;;;;;;10368076;28;20741;-84
2022/03/10 13:35:58;;;;;;;54.83;26.77;;;4.10;54.10;;;;;;10368234;28;20034;-87
2022/03/10 13:41:02;;;;;;;416.20;195.37;;;4.00;53.50;;;;;;10368088;28;20033;-84
2022/03/10 13:46:20;;;;;;;12.53;6.60;;;4.20;53.90;;;;;;10367829;28;20033;-84
2022/03/10 13:51:23;;;;;;;499.33;241.67;;;4.40;52.70;;;;;;10348401;28;20084;-85
2022/03/10 13:56:35;;;;;;;236.67;98.40;;;4.10;54.60;;;;;;10365960;28;20128;-86
2022/03/10 14:01:37;;;;;;;106.57;45.27;;;4.40;55.60;;;;;;10349181;28;20033;-86
2022/03/10 14:06:50;;;;;;;18.37;8.43;;;4.70;57.20;;;;;;10366939;28;20050;-86
2022/03/10 14:11:51;;;;;;;73.43;36.27;;;5.10;56.80;;;;;;10366213;28;20042;-86
2022/03/10 14:16:53;;;;;;;11.37;6.97;;;5.10;54.00;;;;;;10371676;28;20039;-86
2022/03/10 14:21:57;;;;;;;9.60;5.00;;;4.30;53.80;;;;;;10349721;28;20022;-85
2022/03/10 14:27:09;;;;;;;10.57;5.90;;;3.80;54.10;;;;;;10366705;28;20113;-84
2022/03/10 14:32:11;;;;;;;11.37;5.50;;;3.50;54.80;;;;;;10377627;28;20030;-88
2022/03/10 14:37:12;;;;;;;8.67;4.63;;;3.60;55.00;;;;;;10372410;28;20030;-86
2022/03/10 14:42:12;;;;;;;12.17;4.93;;;3.50;54.00;;;;;;10372420;28;20029;-84
2022/03/10 14:47:13;;;;;;;9.50;4.90;;;3.40;54.40;;;;;;10390691;28;20037;-85
2022/03/10 14:52:17;;;;;;;11.30;5.33;;;3.30;55.40;;;;;;10387442;28;20045;-85
2022/03/10 14:57:18;;;;;;;10.47;5.23;;;3.40;55.30;;;;;;10409887;28;20030;-87
2022/03/10 15:02:19;;;;;;;10.70;5.63;;;3.30;55.20;;;;;;10394936;28;20481;-84
2022/03/10 15:07:19;;;;;;;14.10;6.13;;;3.20;55.90;;;;;;10410635;28;20057;-84
2022/03/10 15:12:20;;;;;;;14.27;6.40;;;3.10;56.40;;;;;;10392729;28;20046;-84
2022/03/10 15:17:22;;;;;;;15.17;6.37;;;3.30;56.60;;;;;;10392129;28;20025;-84
2022/03/10 15:22:23;;;;;;;16.87;7.10;;;3.20;55.90;;;;;;10411139;28;20115;-83
2022/03/10 15:27:24;;;;;;;16.77;6.33;;;3.30;57.10;;;;;;10413086;28;20083;-83
2022/03/10 15:32:24;;;;;;;9.80;5.57;;;3.10;56.00;;;;;;10394787;28;20480;-85
2022/03/10 15:37:25;;;;;;;21.30;9.27;;;2.90;56.10;;;;;;10412328;28;20082;-85
2022/03/10 15:42:25;;;;;;;21.83;10.17;;;2.80;56.60;;;;;;10417329;28;20036;-84
2022/03/10 15:47:26;;;;;;;13.97;6.37;;;2.90;56.70;;;;;;10426921;28;20037;-84
2022/03/10 15:52:27;;;;;;;11.80;5.97;;;2.70;56.60;;;;;;10410898;28;20046;-83
2022/03/10 15:57:29;;;;;;;12.57;5.40;;;2.60;56.20;;;;;;10411179;28;20065;-84
2022/03/10 16:02:30;;;;;;;16.73;7.10;;;2.40;56.40;;;;;;10410975;28;20453;-84
2022/03/10 16:07:31;;;;;;;13.73;6.37;;;2.30;56.70;;;;;;10405817;28;20059;-86
2022/03/10 16:12:31;;;;;;;19.30;8.87;;;2.00;56.80;;;;;;10382287;28;20033;-83
2022/03/10 16:17:33;;;;;;;19.63;8.17;;;2.00;57.70;;;;;;10374317;28;20044;-83
2022/03/10 16:22:34;;;;;;;13.90;6.27;;;1.80;58.60;;;;;;10391541;28;20100;-83
2022/03/10 16:27:34;;;;;;;18.63;8.27;;;1.70;59.10;;;;;;10409724;28;20076;-83
2022/03/10 16:32:36;;;;;;;16.83;7.43;;;1.50;59.80;;;;;;10409244;28;20041;-84
2022/03/10 16:37:37;;;;;;;12.80;5.40;;;1.30;60.00;;;;;;10386574;28;20112;-83
2022/03/10 16:42:37;;;;;;;18.07;6.47;;;1.10;59.80;;;;;;10407838;28;20092;-84
2022/03/10 16:47:38;;;;;;;13.20;6.17;;;1.00;59.80;;;;;;10397430;28;20057;-86
2022/03/10 16:52:39;;;;;;;19.33;7.23;;;0.80;60.70;;;;;;10391271;28;20037;-88
2022/03/10 16:57:40;;;;;;;17.60;8.13;;;0.70;61.20;;;;;;10404805;28;20059;-83
2022/03/10 17:02:41;;;;;;;17.03;7.93;;;0.50;61.70;;;;;;10407197;28;20021;-84
2022/03/10 17:07:44;;;;;;;20.33;8.30;;;0.40;62.90;;;;;;10404166;28;20140;-86
2022/03/10 17:12:45;;;;;;;23.13;9.77;;;0.20;62.90;;;;;;10402994;28;20040;-84
2022/03/10 17:17:46;;;;;;;24.33;9.27;;;0.00;63.30;;;;;;10402836;28;20103;-84
2022/03/10 17:23:24;;;;;;;19.63;8.37;;;-0.10;64.40;;;;;;10406381;28;20091;-87
2022/03/10 17:28:25;;;;;;;16.93;7.83;;;-0.10;63.70;;;;;;10403579;28;20570;-86
2022/03/10 17:50:31;;;;;;;40.47;18.10;;;-0.50;66.80;;;;;;12265941;22;19956;-86
2022/03/10 18:23:37;;;;;;;43.83;18.63;;;-1.10;69.90;;;;;;10714942;23;20052;-85
2022/03/10 18:35:03;;;;;;;65.97;31.20;;;-1.20;70.60;;;;;;12219281;23;20031;-85
2022/03/10 18:58:25;;;;;;;59.73;25.30;;;-1.20;71.50;;;;;;10082528;29;20490;-84
2022/03/10 19:03:26;;;;;;;47.67;23.27;;;-1.20;71.40;;;;;;10073569;29;20066;-84
2022/03/10 19:14:28;;;;;;;90.03;29.50;;;-1.30;73.30;;;;;;10069230;29;20053;-84
2022/03/10 19:19:29;;;;;;;136.27;40.87;;;-1.30;73.30;;;;;;10084815;29;20033;-85
2022/03/10 19:24:29;;;;;;;183.67;50.47;;;-1.30;72.10;;;;;;10073941;29;20036;-83
2022/03/10 19:29:30;;;;;;;190.97;53.93;;;-1.40;72.50;;;;;;10085454;29;20045;-83
2022/03/10 19:34:31;;;;;;;243.60;66.60;;;-1.50;72.90;;;;;;10075401;29;20047;-85
2022/03/10 19:39:32;;;;;;;146.70;47.83;;;-1.60;73.10;;;;;;10161300;29;20056;-83
2022/03/10 19:51:01;;;;;;;;;;;-1.80;74.00;;;;;;10157307;29;20092;-84
2022/03/10 19:56:01;;;;;;;108.57;35.83;;;-1.80;74.40;;;;;;10151124;29;19911;-85
2022/03/10 20:07:04;;;;;;;82.47;27.53;;;-1.80;74.50;;;;;;11201344;23;20058;-85
2022/03/10 20:12:27;;;;;;;87.03;28.70;;;-1.80;74.60;;;;;;10248843;29;20050;-87
2022/03/10 20:17:28;;;;;;;62.43;22.53;;;-1.90;74.90;;;;;;10233854;29;20487;-84
2022/03/10 20:22:29;;;;;;;65.97;24.10;;;-1.90;75.00;;;;;;10242458;29;20035;-84
2022/03/10 20:27:30;;;;;;;103.90;32.73;;;-2.00;75.10;;;;;;10247942;29;20474;-83
2022/03/10 20:32:46;;;;;;;91.40;34.97;;;-2.00;75.90;;;;;;10235409;28;20046;-83
2022/03/10 20:38:07;;;;;;;72.57;22.67;;;-2.00;76.00;;;;;;10244528;29;20027;-86
2022/03/10 21:20:54;;;;;;;59.70;18.80;;;-2.40;77.90;;;;;;11159130;23;20066;-84
2022/03/10 21:25:55;;;;;;;50.67;17.73;;;-2.50;78.20;;;;;;10246548;29;20047;-85
2022/03/10 21:30:56;;;;;;;34.40;13.20;;;-2.60;79.00;;;;;;10236585;29;20043;-83
2022/03/10 21:35:57;;;;;;;40.63;15.97;;;-2.50;78.90;;;;;;10247027;29;20046;-83
2022/03/10 21:40:58;;;;;;;36.70;14.13;;;-2.60;78.90;;;;;;10244648;29;20027;-85
2022/03/10 21:45:59;;;;;;;38.07;15.80;;;-2.70;78.70;;;;;;10229883;29;20030;-83
2022/03/10 21:51:00;;;;;;;36.53;13.40;;;-2.70;79.50;;;;;;10234824;29;20125;-85
2022/03/10 22:01:40;;;;;;;;;;;;;;;;;;;;;
2022/03/10 22:13:27;;;;;;;31.87;13.57;;;-3.00;80.90;;;;;;10205191;29;20052;-85
2022/03/10 22:29:52;;;;;;;41.83;14.67;;;-3.10;81.60;;;;;;10393617;23;20664;-83
2022/03/10 22:34:53;;;;;;;32.60;13.85;;;-3.20;81.90;;;;;;10227856;29;20098;-83
2022/03/10 22:39:54;;;;;;;36.53;14.23;;;-3.30;82.70;;;;;;10227004;29;20372;-83
2022/03/10 22:44:54;;;;;;;32.17;13.17;;;-3.30;82.90;;;;;;10226600;29;20031;-83
2022/03/10 22:55:15;;;;;;;35.70;15.03;;;-3.40;83.50;;;;;;10272073;28;20054;-83
2022/03/10 23:00:31;;;;;;;44.03;15.20;;;-3.40;83.70;;;;;;10291841;28;20109;-85
2022/03/10 23:10:52;;;;;;;42.10;16.90;;;-3.40;84.30;;;;;;10275696;28;20038;-83
2022/03/10 23:15:53;;;;;;;47.60;18.57;;;-3.50;84.40;;;;;;10286900;28;20031;-82
2022/03/10 23:20:53;;;;;;;44.00;18.17;;;-3.50;84.50;;;;;;10249375;28;20026;-84
2022/03/10 23:25:54;;;;;;;43.20;17.43;;;-3.60;85.10;;;;;;10273637;28;20116;-83
2022/03/10 23:30:55;;;;;;;47.07;20.07;;;-3.50;85.60;;;;;;10290610;28;20966;-85
2022/03/10 23:35:55;;;;;;;43.37;17.53;;;-3.60;85.50;;;;;;10291429;28;20039;-85
2022/03/10 23:40:56;;;;;;;41.47;18.13;;;-3.70;85.70;;;;;;10289882;28;20057;-84
2022/03/10 23:45:57;;;;;;;47.40;18.13;;;-3.70;87.20;;;;;;10290145;28;20034;-84
2022/03/10 23:50:57;;;;;;;48.57;19.20;;;-3.80;87.40;;;;;;10287648;28;20121;-85
2022/03/10 23:55:58;;;;;;;49.70;20.60;;;-3.80;87.20;;;;;;10290040;28;20027;-83
